createdAt,value
2023-01-18T00:01:05.485Z,98336.64
2023-01-18T00:04:32.598Z,98324.69
2023-01-18T00:07:59.849Z,98316.84
2023-01-18T00:11:26.932Z,98313.83
2023-01-18T00:14:54.248Z,98307.27
2023-01-18T00:18:21.330Z,98312.27
2023-01-18T00:21:48.533Z,98314.32
2023-01-18T00:25:16.129Z,98317.34
2023-01-18T00:28:43.793Z,98319.88
2023-01-18T00:32:10.896Z,98321.39
2023-01-18T00:35:38.056Z,98331.04
2023-01-18T00:39:05.586Z,98339.05
2023-01-18T00:42:50.507Z,98345.03
2023-01-18T00:46:19.557Z,98349.20
2023-01-18T00:49:46.627Z,98347.97
2023-01-18T00:53:14.014Z,98347.76
2023-01-18T00:56:41.196Z,98350.61
2023-01-18T01:00:12.398Z,98350.94
2023-01-18T01:04:03.102Z,98347.14
2023-01-18T01:07:30.120Z,98345.39
2023-01-18T01:11:07.646Z,98344.08
2023-01-18T01:14:53.886Z,98338.81
2023-01-18T01:18:38.463Z,98334.25
2023-01-18T01:22:23.276Z,98333.82
2023-01-18T01:26:07.877Z,98331.85
2023-01-18T01:29:35.044Z,98326.64
2023-01-18T01:33:02.121Z,98318.70
2023-01-18T01:36:29.291Z,98316.56
2023-01-18T01:39:56.554Z,98311.03
2023-01-18T01:43:41.807Z,98307.15
2023-01-18T01:47:14.345Z,98311.02
2023-01-18T01:50:42.907Z,98311.27
2023-01-18T01:54:13.302Z,98315.83
2023-01-18T01:57:43.504Z,98321.41
2023-01-18T02:01:10.521Z,98321.69
2023-01-18T02:04:38.621Z,98321.85
2023-01-18T02:08:11.335Z,98312.20
2023-01-18T02:11:39.316Z,98308.36
2023-01-18T02:15:08.344Z,98305.84
2023-01-18T02:18:42.209Z,98303.52
2023-01-18T02:22:16.596Z,98300.71
2023-01-18T02:26:03.813Z,98298.23
2023-01-18T02:29:53.679Z,98294.21
2023-01-18T02:33:30.072Z,98294.52
2023-01-18T02:37:04.276Z,98294.03
2023-01-18T02:40:39.387Z,98284.52
2023-01-18T02:44:24.197Z,98274.98
2023-01-18T02:47:52.099Z,98272.42
2023-01-18T02:51:19.021Z,98267.98
2023-01-18T02:54:46.431Z,98268.56
2023-01-18T02:58:19.179Z,98269.16
2023-01-18T03:01:51.906Z,98266.86
2023-01-18T03:05:19.777Z,98271.73
2023-01-18T03:08:50.129Z,98266.86
2023-01-18T03:12:24.413Z,98271.07
2023-01-18T03:15:57.293Z,98277.10
2023-01-18T03:19:50.362Z,98280.58
2023-01-18T03:23:39.949Z,98292.27
2023-01-18T03:27:25.665Z,98292.34
2023-01-18T03:31:14.704Z,98302.38
2023-01-18T03:34:51.325Z,98296.05
2023-01-18T03:38:20.250Z,98297.45
2023-01-18T03:41:53.699Z,98299.98
2023-01-18T03:45:27.460Z,98301.52
2023-01-18T03:48:54.487Z,98304.06
2023-01-18T03:52:26.799Z,98300.40
2023-01-18T03:55:59.737Z,98300.02
2023-01-18T03:59:31.277Z,98296.20
2023-01-18T04:02:59.261Z,98293.10
2023-01-18T04:06:26.982Z,98294.30
2023-01-18T04:09:54.247Z,98293.70
2023-01-18T04:13:21.300Z,98293.91
2023-01-18T04:16:48.391Z,98295.52
2023-01-18T04:20:15.602Z,98293.90
2023-01-18T04:23:42.921Z,98290.42
2023-01-18T04:27:09.914Z,98286.75
2023-01-18T04:30:37.243Z,98290.27
2023-01-18T04:34:04.369Z,98291.41
2023-01-18T04:37:31.356Z,98292.70
2023-01-18T04:41:02.984Z,98298.84
2023-01-18T04:44:30.184Z,98299.66
2023-01-18T04:47:57.204Z,98304.09
2023-01-18T04:51:25.050Z,98299.41
2023-01-18T04:54:52.387Z,98297.67
2023-01-18T04:58:19.960Z,98299.00
2023-01-18T05:01:47.077Z,98298.46
2023-01-18T05:05:14.364Z,98287.06
2023-01-18T05:08:42.490Z,98280.50
2023-01-18T05:12:09.955Z,98274.44
2023-01-18T05:15:36.935Z,98274.22
2023-01-18T05:19:04.045Z,98274.31
2023-01-18T05:22:33.070Z,98268.94
2023-01-18T05:26:01.223Z,98270.90
2023-01-18T05:29:28.203Z,98268.94
2023-01-18T05:32:55.199Z,98278.99
2023-01-18T05:36:22.141Z,98288.85
2023-01-18T05:39:49.175Z,98295.95
2023-01-18T05:43:16.531Z,98299.96
2023-01-18T05:46:43.440Z,98305.85
2023-01-18T05:50:11.621Z,98309.17
2023-01-18T05:53:39.807Z,98321.00
2023-01-18T05:57:06.772Z,98318.79
2023-01-18T06:00:34.405Z,98322.91
2023-01-18T06:04:01.520Z,98322.92
2023-01-18T06:07:28.645Z,98324.46
2023-01-18T06:11:00.650Z,98329.84
2023-01-18T06:14:27.631Z,98334.30
2023-01-18T06:17:54.659Z,98335.52
2023-01-18T06:21:21.755Z,98332.09
2023-01-18T06:24:48.848Z,98324.95
2023-01-18T06:28:16.267Z,98326.56
2023-01-18T06:31:43.678Z,98326.13
2023-01-18T06:35:11.715Z,98312.78
2023-01-18T06:38:38.594Z,98312.13
2023-01-18T06:42:06.649Z,98319.58
2023-01-18T06:45:33.645Z,98317.07
2023-01-18T06:49:00.643Z,98319.02
2023-01-18T06:52:27.639Z,98315.25
2023-01-18T06:55:59.753Z,98317.89
2023-01-18T06:59:28.505Z,98325.15
2023-01-18T07:02:56.595Z,98331.73
2023-01-18T07:06:24.239Z,98338.46
2023-01-18T07:09:51.255Z,98336.27
2023-01-18T07:13:18.196Z,98340.63
2023-01-18T07:16:45.195Z,98340.68
2023-01-18T07:20:16.597Z,98338.34
2023-01-18T07:23:44.430Z,98340.95
2023-01-18T07:27:11.933Z,98342.54
2023-01-18T07:30:38.864Z,98345.67
2023-01-18T07:34:06.276Z,98342.41
2023-01-18T07:37:34.929Z,98336.23
2023-01-18T07:41:03.326Z,98333.33
2023-01-18T07:44:31.011Z,98334.58
2023-01-18T07:47:57.944Z,98339.11
2023-01-18T07:51:25.280Z,98337.29
2023-01-18T07:54:52.695Z,98335.63
2023-01-18T07:58:20.066Z,98334.17
2023-01-18T08:01:47.022Z,98335.61
2023-01-18T08:05:14.217Z,98335.70
2023-01-18T08:08:41.688Z,98335.77
2023-01-18T08:12:13.671Z,98339.11
2023-01-18T08:15:41.617Z,98338.48
2023-01-18T08:19:08.843Z,98338.52
2023-01-18T08:22:35.888Z,98339.61
2023-01-18T08:26:05.115Z,98341.00
2023-01-18T08:29:32.242Z,98339.11
2023-01-18T08:33:01.644Z,98343.98
2023-01-18T08:36:28.669Z,98351.06
2023-01-18T08:39:55.855Z,98363.48
2023-01-18T08:43:24.282Z,98364.06
2023-01-18T08:46:51.328Z,98353.96
2023-01-18T08:50:18.861Z,98353.80
2023-01-18T08:53:46.425Z,98364.16
2023-01-18T08:57:13.628Z,98356.46
2023-01-18T09:00:40.573Z,98364.06
2023-01-18T09:04:07.750Z,98361.67
2023-01-18T09:07:34.729Z,98360.34
2023-01-18T09:11:05.988Z,98364.98
2023-01-18T09:14:32.921Z,98362.39
2023-01-18T09:18:05.206Z,98363.39
2023-01-18T09:21:32.397Z,98369.69
2023-01-18T09:24:59.426Z,98375.98
2023-01-18T09:28:26.429Z,98381.80
2023-01-18T09:31:54.466Z,98385.53
2023-01-18T09:35:21.518Z,98386.18
2023-01-18T09:38:48.627Z,98387.69
2023-01-18T09:42:22.071Z,98385.63
2023-01-18T09:45:50.744Z,98384.20
2023-01-18T09:49:23.125Z,98377.32
2023-01-18T09:52:58.805Z,98372.97
2023-01-18T09:56:31.854Z,98374.00
2023-01-18T10:00:00.694Z,98367.77
2023-01-18T10:03:35.491Z,98369.35
2023-01-18T10:07:06.574Z,98369.65
2023-01-18T10:10:38.003Z,98373.59
2023-01-18T10:14:09.464Z,98374.08
2023-01-18T10:17:39.249Z,98374.41
2023-01-18T10:21:09.451Z,98375.96
2023-01-18T10:24:47.153Z,98378.20
2023-01-18T10:28:29.344Z,98382.98
2023-01-18T10:32:02.594Z,98382.24
2023-01-18T10:35:34.386Z,98385.84
2023-01-18T10:39:04.546Z,98390.99
2023-01-18T10:42:39.763Z,98395.61
2023-01-18T10:46:16.666Z,98397.01
2023-01-18T10:49:46.104Z,98395.84
2023-01-18T10:53:28.444Z,98392.02
2023-01-18T10:57:05.724Z,98395.31
2023-01-18T11:00:36.213Z,98394.73
2023-01-18T11:04:07.571Z,98391.09
2023-01-18T11:07:34.899Z,98390.09
2023-01-18T11:11:04.536Z,98390.26
2023-01-18T11:14:30.757Z,98388.52
2023-01-18T11:18:09.744Z,98388.84
2023-01-18T11:21:50.705Z,98392.28
2023-01-18T11:25:20.958Z,98391.77
2023-01-18T11:28:55.905Z,98390.26
2023-01-18T11:32:25.698Z,98385.87
2023-01-18T11:35:59.224Z,98390.38
2023-01-18T11:39:34.725Z,98397.06
2023-01-18T11:43:04.749Z,98399.92
2023-01-18T11:46:40.213Z,98401.77
2023-01-18T11:50:25.078Z,98403.09
2023-01-18T11:53:59.640Z,98399.45
2023-01-18T11:57:28.165Z,98403.20
2023-01-18T12:01:09.765Z,98403.04
2023-01-18T12:04:52.769Z,98399.25
2023-01-18T12:08:53.179Z,98402.33
2023-01-18T12:12:37.653Z,98403.40
2023-01-18T12:16:15.482Z,98404.31
2023-01-18T12:19:59.673Z,98406.08
2023-01-18T12:23:42.374Z,98409.23
2023-01-18T12:27:16.460Z,98413.88
2023-01-18T12:30:55.275Z,98412.62
2023-01-18T12:34:27.287Z,98419.23
2023-01-18T12:38:04.694Z,98425.68
2023-01-18T12:41:51.117Z,98427.37
2023-01-18T12:45:28.403Z,98430.06
2023-01-18T12:49:00.666Z,98428.49
2023-01-18T12:52:28.665Z,98433.86
2023-01-18T12:55:59.543Z,98436.23
2023-01-18T12:59:30.567Z,98439.77
2023-01-18T13:02:59.127Z,98443.64
2023-01-18T13:06:28.708Z,98446.51
2023-01-18T13:09:56.856Z,98450.23
2023-01-18T13:13:28.623Z,98456.38
2023-01-18T13:17:06.097Z,98465.80
2023-01-18T13:20:44.579Z,98465.06
2023-01-18T13:24:29.264Z,98472.39
2023-01-18T13:28:05.515Z,98474.52
2023-01-18T13:31:34.441Z,98483.29
2023-01-18T13:35:19.664Z,98489.97
2023-01-18T13:38:55.741Z,98492.02
2023-01-18T13:42:38.360Z,98497.55
2023-01-18T13:46:20.594Z,98498.66
2023-01-18T13:49:49.720Z,98503.38
2023-01-18T13:53:31.656Z,98510.80
2023-01-18T14:00:51.883Z,98524.33
2023-01-18T14:04:34.433Z,98532.41
2023-01-18T14:08:05.367Z,98537.78
2023-01-18T14:11:36.627Z,98535.40
2023-01-18T14:15:04.400Z,98536.92
2023-01-18T14:18:33.078Z,98540.79
2023-01-18T14:22:26.606Z,98544.49
2023-01-18T14:26:02.823Z,98558.88
2023-01-18T14:29:36.495Z,98570.50
2023-01-18T14:33:09.174Z,98575.45
2023-01-18T14:36:38.687Z,98578.31
2023-01-18T14:40:19.237Z,98578.81
2023-01-18T14:43:48.835Z,98581.80
2023-01-18T14:47:24.424Z,98585.25
2023-01-18T14:50:54.980Z,98581.46
2023-01-18T14:54:25.998Z,98587.27
2023-01-18T14:58:11.510Z,98592.39
2023-01-18T15:01:40.585Z,98600.13
2023-01-18T15:05:16.917Z,98606.12
2023-01-18T15:08:46.138Z,98609.34
2023-01-18T15:12:16.967Z,98614.31
2023-01-18T15:15:45.140Z,98619.83
2023-01-18T15:19:20.704Z,98626.02
2023-01-18T15:22:51.017Z,98631.35
2023-01-18T15:26:18.156Z,98640.30
2023-01-18T15:29:51.283Z,98644.08
2023-01-18T15:33:20.645Z,98647.68
2023-01-18T15:36:49.212Z,98650.09
2023-01-18T15:40:30.660Z,98656.27
2023-01-18T15:43:58.213Z,98663.96
2023-01-18T15:47:28.841Z,98668.40
2023-01-18T15:50:57.970Z,98674.91
2023-01-18T15:54:28.585Z,98676.24
2023-01-18T15:58:00.935Z,98677.02
2023-01-18T16:01:31.995Z,98681.94
2023-01-18T16:05:21.193Z,98686.73
2023-01-18T16:09:11.835Z,98692.69
2023-01-18T16:12:40.459Z,98693.20
2023-01-18T16:16:19.307Z,98701.02
2023-01-18T16:19:50.421Z,98705.84
2023-01-18T16:23:23.126Z,98720.31
2023-01-18T16:26:50.861Z,98732.38
2023-01-18T16:30:24.077Z,98738.61
2023-01-18T16:33:51.316Z,98744.38
2023-01-18T16:37:19.395Z,98746.55
2023-01-18T16:40:50.334Z,98748.35
2023-01-18T16:44:18.228Z,98753.42
2023-01-18T16:47:45.739Z,98758.15
2023-01-18T16:51:18.539Z,98767.54
2023-01-18T16:54:46.995Z,98772.30
2023-01-18T16:58:15.417Z,98772.79
2023-01-18T17:01:42.881Z,98774.02
2023-01-18T17:05:12.219Z,98775.05
2023-01-18T17:08:40.340Z,98774.33
2023-01-18T17:12:08.826Z,98785.48
2023-01-18T17:15:41.454Z,98789.55
2023-01-18T17:19:16.863Z,98792.50
2023-01-18T17:22:45.045Z,98793.04
2023-01-18T17:26:16.783Z,98799.11
2023-01-18T17:29:45.103Z,98803.96
2023-01-18T17:33:19.590Z,98809.13
2023-01-18T17:36:47.323Z,98815.51
2023-01-18T17:40:24.065Z,98818.26
2023-01-18T17:43:56.173Z,98817.80
2023-01-18T17:47:23.609Z,98823.33
2023-01-18T17:50:51.244Z,98827.65
2023-01-18T17:54:21.025Z,98832.67
2023-01-18T17:57:48.983Z,98832.19
2023-01-18T18:01:18.476Z,98839.23
2023-01-18T18:04:46.228Z,98847.80
2023-01-18T18:08:13.662Z,98862.71
2023-01-18T18:11:41.448Z,98868.54
2023-01-18T18:15:10.825Z,98877.32
2023-01-18T18:18:39.197Z,98884.20
2023-01-18T18:22:07.329Z,98886.09
2023-01-18T18:25:35.569Z,98889.38
2023-01-18T18:29:03.218Z,98890.45
2023-01-18T18:32:30.828Z,98892.36
2023-01-18T18:35:59.090Z,98896.33
2023-01-18T18:39:26.776Z,98902.35
2023-01-18T18:43:02.349Z,98914.61
2023-01-18T18:46:30.592Z,98923.08
2023-01-18T18:49:58.361Z,98932.42
2023-01-18T18:53:37.068Z,98941.42
2023-01-18T18:57:06.116Z,98951.29
2023-01-18T19:00:34.454Z,98954.05
2023-01-18T19:04:02.517Z,98954.95
2023-01-18T19:07:29.660Z,98961.30
2023-01-18T19:10:57.598Z,98958.54
2023-01-18T19:14:26.641Z,98958.37
2023-01-18T19:17:54.808Z,98967.48
2023-01-18T19:21:23.073Z,98975.22
2023-01-18T19:24:51.768Z,98980.86
2023-01-18T19:28:19.939Z,98985.66
2023-01-18T19:31:47.361Z,98992.29
2023-01-18T19:35:16.387Z,98991.88
2023-01-18T19:38:48.049Z,98989.23
2023-01-18T19:42:18.632Z,98990.22
2023-01-18T19:45:46.764Z,98992.45
2023-01-18T19:49:15.488Z,98995.00
2023-01-18T19:52:46.015Z,99005.45
2023-01-18T19:56:13.950Z,99015.40
2023-01-18T19:59:42.757Z,99021.76
2023-01-18T20:03:13.527Z,99029.14
2023-01-18T20:06:43.288Z,99026.91
2023-01-18T20:10:12.309Z,99032.56
2023-01-18T20:13:42.083Z,99036.70
2023-01-18T20:17:09.428Z,99039.05
2023-01-18T20:20:36.685Z,99043.80
2023-01-18T20:24:03.838Z,99050.67
2023-01-18T20:27:31.809Z,99051.17
2023-01-18T20:31:00.791Z,99059.27
2023-01-18T20:34:28.721Z,99071.16
2023-01-18T20:37:56.455Z,99081.87
2023-01-18T20:41:24.468Z,99089.11
2023-01-18T20:44:54.042Z,99095.83
2023-01-18T20:48:22.113Z,99100.69
2023-01-18T20:51:50.501Z,99112.38
2023-01-18T20:55:19.297Z,99117.88
2023-01-18T20:58:47.727Z,99121.98
2023-01-18T21:02:16.136Z,99123.55
2023-01-18T21:05:47.744Z,99128.73
2023-01-18T21:09:16.255Z,99140.61
2023-01-18T21:12:44.952Z,99140.96
2023-01-18T21:16:13.809Z,99147.81
2023-01-18T21:19:47.640Z,99151.45
2023-01-18T21:23:17.781Z,99154.36
2023-01-18T21:26:46.369Z,99155.25
2023-01-18T21:30:16.907Z,99152.37
2023-01-18T21:33:44.821Z,99151.70
2023-01-18T21:37:13.133Z,99149.64
2023-01-18T21:40:41.272Z,99158.04
2023-01-18T21:44:29.161Z,99160.26
2023-01-18T21:47:56.688Z,99164.06
2023-01-18T21:51:50.029Z,99167.35
2023-01-18T21:55:17.900Z,99175.97
2023-01-18T21:58:54.610Z,99182.71
2023-01-18T22:02:22.619Z,99184.05
2023-01-18T22:05:50.343Z,99181.25
2023-01-18T22:09:17.939Z,99189.33
2023-01-18T22:12:44.883Z,99190.52
2023-01-18T22:16:11.994Z,99186.20
2023-01-18T22:19:39.569Z,99184.57
2023-01-18T22:23:06.574Z,99181.41
2023-01-18T22:26:36.152Z,99181.61
2023-01-18T22:30:04.121Z,99180.52
2023-01-18T22:33:31.515Z,99175.70
2023-01-18T22:36:58.455Z,99178.14
2023-01-18T22:40:25.501Z,99178.09
2023-01-18T22:43:53.036Z,99182.23
2023-01-18T22:47:19.932Z,99189.59
2023-01-18T22:50:55.018Z,99187.15
2023-01-18T22:54:23.084Z,99194.81
2023-01-18T22:57:50.260Z,99195.86
2023-01-18T23:01:23.306Z,99200.70
2023-01-18T23:04:50.387Z,99210.38
2023-01-18T23:08:17.335Z,99224.72
2023-01-18T23:11:45.522Z,99231.12
2023-01-18T23:15:32.456Z,99235.77
2023-01-18T23:18:59.867Z,99240.48
2023-01-18T23:22:27.162Z,99238.30
2023-01-18T23:25:58.081Z,99245.33
2023-01-18T23:29:25.416Z,99249.95
2023-01-18T23:32:52.627Z,99256.84
2023-01-18T23:36:19.634Z,99259.23
2023-01-18T23:40:04.493Z,99258.72
2023-01-18T23:43:49.342Z,99256.11
2023-01-18T23:47:34.119Z,99262.23
2023-01-18T23:51:19.286Z,99269.58
2023-01-18T23:54:46.313Z,99276.02
2023-01-18T23:58:13.839Z,99283.84
